Ride Results

Moyston Sunday CFA (09-05-2015)
Ride distance: 100.0 km Elevator

Outcomes - Moyston Sunday CFA (09-05-2015)
Division No. of Entries Retired / DNE Completed Withdrawn Ineligible V/O Percentage Completed
HW 5 1 2 1 - 1 60.00%
MW 27 13 6 4 - 4 70.37%
LW 13 6 4 1 - 2 76.92%
JN 4 2 2 - - - 100.00%
Totals 49 22 14 6 - 7 73.47%
Results - Moyston Sunday CFA (09-05-2015)
No. Rider Horse Place Time Leg Speeds Total
Km/Hr
H/R bpm
Heavyweight
191 Jake Verspaandonk Silverline Jetstream 1 (BC) 7:16:00 12.5, 15.3, 13.4 13.76 40, 54, 52, 55 (Avg:53)
135 Tamara Atkinson Mathoura McKinlay 2 7:51:00 12.9, 13.2, 11.5 12.74 45, 40, 52, 47 (Avg:46)
243 Stephen Pitt Dara Park He's a Profit Retired/DNE L2 7:53:00 10.3, 9.9 10.15 36, 54, 58 (Avg:56)
76 Russell Robinson Clovelly Park Shazeem Lame L2 0:00:00 13.4, 13.6 - 33, 40, 46 (Avg:43)
259 Wendy Lightowler Kalatha Park Shahraz Withdrawn L1 0:00:00 - - 28, 37 (Avg:37)
Middleweight
750 Ben Hudson Cap Braveheart 1 6:09:00 15.8, 16.5, 16.4 16.26 34, 51, 52, 49 (Avg:50)
168 Trish VanDonk Mullungdung Saabrina 2 (BC) 6:21:00 15.9, 16.4, 14.1 15.75 42, 47, 48, 48 (Avg:47)
754 Sharyn Coulston Castlebar Corsair 3 7:19:00 13.1, 14.5, 13.1 13.67 34, 35, 50, 46 (Avg:43)
300 Sue Baillie Cavanagh Felix 4 8:03:00 13.1, 13.0, 10.3 12.42 36, 46, 46, 47 (Avg:46)
233 Paul Bryson Alhambra Latiffe 4 8:03:00 13.5, 12.1, 11.1 12.42 29, 44, 47, 48 (Avg:46)
257 Tanya Beacham Creswick Magdaleenah 6 9:01:00 11.5, 11.1, 10.0 11.09 31, 37, 47, 42 (Avg:42)
13 Linda Tanian Castlebar Cadabra Retired/DNE L2 5:48:00 13.1, 14.5 13.79 32, 41, 48 (Avg:44)
173 Robyn Albers Stanley Retired/DNE L2 5:54:00 13.8, 13.2 13.56 31, 38, 40 (Avg:39)
172 Michael Cadman A'landell Kwaint Retired/DNE L2 5:54:00 13.8, 13.2 13.56 27, 42, 44 (Avg:43)
189 Sally Cowan Willabee Park Ackwell Retired/DNE L2 6:51:00 11.1, 12.2 11.68 35, 39, 59 (Avg:49)
285 Clint Cowan Waitara Whipawee Retired/DNE L2 6:51:00 11.1, 12.2 11.68 38, 43, 47 (Avg:45)
286 Jason Rathbone Waitara Milo Retired/DNE L2 7:04:00 11.1, 11.4 11.32 26, 41, 46 (Avg:43)
744 Kimberley Temmerman Oso Elycian Retired/DNE L2 7:07:00 11.5, 10.9 11.24 31, 42, 46 (Avg:44)
100 Fay Bushby Al-Marah Ellice Retired/DNE L2 7:13:00 11.5, 10.6 11.09 36, 46, 57 (Avg:51)
152 Naomi O'Shaughnessy Castlebar Party Girl Retired/DNE L2 7:13:00 11.5, 10.6 11.09 33, 44, 49 (Avg:46)
742 Georgie Hart Musical Gully Bosanova Retired/DNE L2 7:19:00 10.5, 11.3 10.93 31, 39, 41 (Avg:40)
756 Robyn Player Canala Aramis Retired/DNE L2 7:33:00 10.3, 10.8 10.60 41, 43, 46 (Avg:44)
131 Simon Thomas Morundah Just Sharii Retired/DNE L2 7:41:00 10.1, 10.6 10.41 33, 42, 49 (Avg:45)
103 Jess Welsh Pyrenees Pharaoh Retired/DNE L2 9:28:00 8.3, 8.5 8.45 33, 34, 43 (Avg:38)
195 Nikita Verspaandonk Mullungdung Blue Belle Lame L3 0:00:00 15.9, 16.4, 14.1 - 39, 45, 52, 49 (Avg:48)
147 Tina Camm Christaarn Zemirah Lame L2 0:00:00 11.4, 11.2 - 38, 44, 55 (Avg:49)
6 Julie Woods Pyrenees Kaleb Withdrawn L2 0:00:00 - - 38, 44, 34 (Avg:39)
753 Jenny Berg Candynae Lame L1 0:00:00 12.3 - 38, 46 (Avg:46)
254 Danielle Griffin Castle Downs Challenge Withdrawn L1 0:00:00 - - 34, 38 (Avg:38)
296 Lindsay Hine Harmere Platinum Melas Lame L1 0:00:00 15.8 - 44, 45 (Avg:45)
175 Dianne Leehane Tarara Malone Withdrawn L1 0:00:00 - - 30, 40 (Avg:40)
287 Toni-Anne McLennan Glen Burra Spring Withdrawn L1 0:00:00 - - 32, 38 (Avg:38)
Lightweight
751 Amily Daw Castlebar Guardian 1 (BC) 7:19:00 11.4, 17.3, 13.1 13.67 30, 40, 52, 47 (Avg:46)
219 Caroline Noble Ken U Spot the Difference 2 7:23:00 15.3, 13.2, 11.3 13.54 34, 46, 49, 55 (Avg:50)
759 Allix Jones Al Marah Gypsy Red 3 8:24:00 12.3, 12.2, 10.6 11.90 39, 43, 49, 53 (Avg:48)
161 Shannon Decker Rocky Point Blue Kyanite 4 9:29:00 10.1, 10.6, 11.1 10.54 36, 45, 47, 47 (Avg:46)
91 Kim Noble Warrawee Naaziq Retired/DNE L2 6:48:00 12.2, 11.3 11.76 38, 48, 51 (Avg:49)
61 Lois Sharam Musical Gully Carousel Retired/DNE L2 7:02:00 11.5, 11.1 11.37 33, 45, 60 (Avg:52)
755 Sorsha Stuart-Rokvic Oso Gay Capriole Retired/DNE L2 7:07:00 11.5, 10.9 11.24 37, 44, 47 (Avg:45)
758 Michelle Cranston Kato Retired/DNE L2 7:19:00 10.5, 11.3 10.93 32, 39, 50 (Avg:44)
278 Gina Thompson Karameawoods Amber Retired/DNE L2 7:19:00 10.5, 11.3 10.93 35, 41, 48 (Avg:44)
151 Kasey Thomas Rocky Point Black Xanthanite Retired/DNE L2 7:41:00 10.1, 10.6 10.41 32, 42, 48 (Avg:45)
747 Hussein Al Assadi Shemaih Sparkling Arrow Lame L2 0:00:00 13.1, 9.9 - 40, 48, 53 (Avg:50)
217 Tanya Perry Windradyne Hot Pepper Lame L2 0:00:00 13.6, 10.8 - 41, 45, 45 (Avg:45)
244 Marty Bryson Castlebar Shatan Withdrawn P/R 0:00:00 - - -
Junior
262 Bonnie Player Quartz Hill Farm Eragon 1 (BC) 7:23:00 15.3, 13.2, 11.3 13.54 35, 46, 51, 53 (Avg:50)
757 Stacey Clarke Oso Ngaire 2 8:24:00 12.3, 12.2, 10.6 11.90 32, 42, 44, 43 (Avg:43)
292 Alison Noble Roswick Dilhurst Retired/DNE L2 6:48:00 12.2, 11.3 11.76 30, 42, 45 (Avg:43)
748 Chloe Hubczack AragonnMG Retired/DNE L2 7:33:00 10.3, 10.8 10.60 38, 42, 49 (Avg:45)